Back to Top

Language: 

My Weather Underground Personal Weather Station Historical Data with Graphs...

Delerius Weather Station Historical Data
Daily Summary for May 29, 2017 Units:  Metric    English   Both
« Previous Day
Next Day »
Daily Weekly Monthly Yearly Custom
  High: Low: Average:
Temperature: 15.3 °C 11.8 °C 12.9 °C
Dew Point: 13.3 °C 11.3 °C 12.3 °C
Humidity: 97 % 87 % 96 %
Wind Speed: 11.3 km/h 0 km/h 4.5 km/h
Wind Gust: 22.5 km/h - -
Wind:- - ENE
Pressure: 1016.5 hPa 1011.1 hPa -
Precipitation: 3.81 mm    
Historical Graphs
 
 
Tabular Data for May 29, 2017
Time Temperature Dew Point Pressure Wind Wind Speed Wind Gust Humidity Rainfall Rate (Hourly) solar Conditions
00:02 15.3 °C 13.2 °C 1016.1 hPa ENE 6.4 km/h 16.1 km/h 87 % 0 mm 0 W/m2
00:07 15.3 °C 13.2 °C 1016.1 hPa ENE 6.4 km/h 14.5 km/h 87 % 0 mm 0 W/m2
00:12 15.2 °C 13.1 °C 1016.5 hPa ENE 8 km/h 17.7 km/h 87 % 0 mm 0 W/m2
00:17 15.1 °C 12.9 °C 1016.5 hPa ENE 8 km/h 17.7 km/h 87 % 0 mm 0 W/m2
00:22 15.1 °C 13.1 °C 1016.5 hPa East 6.4 km/h 14.5 km/h 88 % 0 mm 0 W/m2
00:27 15.1 °C 13.1 °C 1016.5 hPa East 6.4 km/h 12.9 km/h 88 % 0 mm 0 W/m2
00:32 15 °C 13.2 °C 1016.5 hPa East 6.4 km/h 12.9 km/h 89 % 0.25 mm 0 W/m2
00:37 14.9 °C 13.1 °C 1016.5 hPa East 6.4 km/h 12.9 km/h 89 % 0.76 mm 0 W/m2
00:42 14.8 °C 13.2 °C 1016.5 hPa East 6.4 km/h 12.9 km/h 90 % 1.27 mm 0 W/m2
00:47 14.7 °C 13.2 °C 1016.1 hPa ENE 6.4 km/h 17.7 km/h 91 % 1.27 mm 0 W/m2
00:48 14.7 °C 13.2 °C 1016.1 hPa ENE 8 km/h 17.7 km/h 91 % 1.27 mm 0 W/m2
00:53 14.6 °C 13.2 °C 1016.1 hPa ENE 6.4 km/h 17.7 km/h 91 % 1.52 mm 0 W/m2
00:58 14.5 °C 13.2 °C 1016.5 hPa ENE 4.8 km/h 14.5 km/h 92 % 1.52 mm 0 W/m2
01:03 14.5 °C 13.2 °C 1016.1 hPa ENE 3.2 km/h 11.3 km/h 92 % 1.52 mm 0 W/m2
01:08 14.4 °C 13.3 °C 1016.1 hPa ENE 3.2 km/h 11.3 km/h 93 % 1.52 mm 0 W/m2
01:13 14.3 °C 13.2 °C 1016.1 hPa ENE 4.8 km/h 12.9 km/h 93 % 1.52 mm 0 W/m2
01:18 14.2 °C 13.1 °C 1016.1 hPa NE 6.4 km/h 12.9 km/h 93 % 1.52 mm 0 W/m2
01:23 14.1 °C 13 °C 1016.1 hPa NE 8 km/h 14.5 km/h 93 % 1.52 mm 0 W/m2
01:28 14.1 °C 13 °C 1016.1 hPa ENE 6.4 km/h 14.5 km/h 93 % 1.52 mm 0 W/m2
01:33 14 °C 12.9 °C 1015.8 hPa ENE 4.8 km/h 11.3 km/h 93 % 1.52 mm 0 W/m2
01:38 13.9 °C 12.8 °C 1015.8 hPa NE 6.4 km/h 14.5 km/h 93 % 0.76 mm 0 W/m2
01:43 13.8 °C 12.8 °C 1015.8 hPa NE 4.8 km/h 14.5 km/h 94 % 0.51 mm 0 W/m2
01:48 13.8 °C 12.8 °C 1015.5 hPa NE 4.8 km/h 11.3 km/h 94 % 0.51 mm 0 W/m2
01:53 13.7 °C 12.8 °C 1015.5 hPa ENE 6.4 km/h 14.5 km/h 94 % 0.51 mm 0 W/m2
01:58 13.7 °C 12.8 °C 1015.8 hPa ENE 8 km/h 16.1 km/h 94 % 0.51 mm 0 W/m2
02:03 13.6 °C 12.7 °C 1015.5 hPa ENE 6.4 km/h 16.1 km/h 94 % 0.51 mm 0 W/m2
02:08 13.6 °C 12.7 °C 1015.5 hPa ENE 6.4 km/h 12.9 km/h 94 % 0.51 mm 0 W/m2
02:13 13.6 °C 12.7 °C 1015.5 hPa ENE 6.4 km/h 12.9 km/h 94 % 0.51 mm 0 W/m2
02:18 13.6 °C 12.8 °C 1015.8 hPa ENE 6.4 km/h 12.9 km/h 95 % 0.51 mm 0 W/m2
02:23 13.5 °C 12.6 °C 1015.8 hPa ENE 6.4 km/h 19.3 km/h 94 % 0.51 mm 0 W/m2
02:28 13.4 °C 12.4 °C 1015.8 hPa ENE 6.4 km/h 19.3 km/h 94 % 0.51 mm 0 W/m2
02:33 13.4 °C 12.6 °C 1015.8 hPa ENE 4.8 km/h 12.9 km/h 95 % 0.25 mm 0 W/m2
02:38 13.4 °C 12.6 °C 1015.8 hPa ENE 4.8 km/h 12.9 km/h 95 % 0.25 mm 0 W/m2
02:39 13.4 °C 12.4 °C 1015.8 hPa ENE 4.8 km/h 12.9 km/h 94 % 0.25 mm 0 W/m2
02:44 13.3 °C 12.5 °C 1015.8 hPa ENE 4.8 km/h 12.9 km/h 95 % 0.25 mm 0 W/m2
02:49 13.3 °C 12.5 °C 1015.8 hPa ENE 4.8 km/h 14.5 km/h 95 % 0.25 mm 0 W/m2
02:54 13.3 °C 12.5 °C 1015.8 hPa ENE 6.4 km/h 14.5 km/h 95 % 0.25 mm 0 W/m2
02:59 13.3 °C 12.5 °C 1015.8 hPa ENE 4.8 km/h 12.9 km/h 95 % 0.25 mm 0 W/m2
03:04 13.3 °C 12.5 °C 1015.5 hPa East 3.2 km/h 12.9 km/h 95 % 0 mm 0 W/m2
03:09 13.3 °C 12.5 °C 1015.5 hPa East 4.8 km/h 14.5 km/h 95 % 0 mm 0 W/m2
03:14 13.2 °C 12.4 °C 1015.5 hPa ENE 4.8 km/h 14.5 km/h 95 % 0 mm 0 W/m2
03:19 13.2 °C 12.4 °C 1015.5 hPa ENE 4.8 km/h 12.9 km/h 95 % 0 mm 0 W/m2
03:24 13.2 °C 12.4 °C 1015.5 hPa ENE 4.8 km/h 12.9 km/h 95 % 0 mm 0 W/m2
03:29 13.2 °C 12.4 °C 1015.5 hPa ENE 6.4 km/h 17.7 km/h 95 % 0 mm 0 W/m2
03:34 13.1 °C 12.3 °C 1015.5 hPa ENE 8 km/h 17.7 km/h 95 % 0 mm 0 W/m2
03:39 13.1 °C 12.3 °C 1015.5 hPa ENE 6.4 km/h 12.9 km/h 95 % 0 mm 0 W/m2
03:44 13.1 °C 12.3 °C 1015.5 hPa ENE 4.8 km/h 12.9 km/h 95 % 0 mm 0 W/m2
03:49 13.1 °C 12.3 °C 1015.5 hPa ENE 6.4 km/h 16.1 km/h 95 % 0 mm 0 W/m2
03:54 13 °C 12.2 °C 1015.1 hPa ENE 6.4 km/h 16.1 km/h 95 % 0 mm 0 W/m2
03:59 13 °C 12.2 °C 1015.1 hPa ENE 4.8 km/h 12.9 km/h 95 % 0.25 mm 0 W/m2
04:04 13 °C 12.2 °C 1015.1 hPa ENE 4.8 km/h 12.9 km/h 95 % 0.25 mm 0 W/m2
04:09 12.9 °C 12.3 °C 1015.1 hPa ENE 4.8 km/h 14.5 km/h 96 % 0.25 mm 0 W/m2
04:14 13 °C 12.4 °C 1014.8 hPa ENE 4.8 km/h 14.5 km/h 96 % 0.25 mm 0 W/m2
04:19 12.9 °C 12.3 °C 1014.8 hPa ENE 4.8 km/h 11.3 km/h 96 % 0.25 mm 0 W/m2
04:24 12.9 °C 12.1 °C 1014.8 hPa ENE 4.8 km/h 11.3 km/h 95 % 0.25 mm 0 W/m2
04:29 12.9 °C 12.3 °C 1014.8 hPa ENE 4.8 km/h 11.3 km/h 96 % 0.25 mm 0 W/m2
04:34 12.9 °C 12.3 °C 1014.4 hPa ENE 6.4 km/h 12.9 km/h 96 % 0.25 mm 0 W/m2
04:39 12.8 °C 12.2 °C 1014.4 hPa ENE 8 km/h 16.1 km/h 96 % 0.25 mm 0 W/m2
04:44 12.8 °C 12.2 °C 1014.4 hPa ENE 8 km/h 16.1 km/h 96 % 0.25 mm 0 W/m2
04:49 12.8 °C 12.2 °C 1014.4 hPa ENE 8 km/h 17.7 km/h 96 % 0.25 mm 0 W/m2
04:54 12.8 °C 12.2 °C 1014.1 hPa ENE 8 km/h 17.7 km/h 96 % 0.25 mm 0 W/m2
04:59 12.8 °C 12.2 °C 1014.1 hPa ENE 8 km/h 16.1 km/h 96 % 0 mm 0 W/m2
05:04 12.7 °C 12.1 °C 1014.1 hPa ENE 8 km/h 14.5 km/h 96 % 0 mm 0 W/m2
05:09 12.7 °C 12.1 °C 1014.1 hPa ENE 8 km/h 17.7 km/h 96 % 0 mm 0 W/m2
05:15 12.7 °C 12.1 °C 1014.1 hPa ENE 8 km/h 17.7 km/h 96 % 0 mm 0 W/m2
05:20 12.7 °C 12.1 °C 1014.1 hPa ENE 6.4 km/h 12.9 km/h 96 % 0 mm 0 W/m2
05:25 12.7 °C 12.1 °C 1014.1 hPa ENE 4.8 km/h 12.9 km/h 96 % 0 mm 0 W/m2
05:30 12.7 °C 12.1 °C 1014.1 hPa ENE 6.4 km/h 14.5 km/h 96 % 0 mm 0 W/m2
05:35 12.7 °C 12.1 °C 1014.1 hPa NE 6.4 km/h 16.1 km/h 96 % 0 mm 0 W/m2
05:40 12.6 °C 12 °C 1014.1 hPa ENE 8 km/h 16.1 km/h 96 % 0.25 mm 0 W/m2
05:45 12.6 °C 12 °C 1014.1 hPa ENE 8 km/h 16.1 km/h 96 % 0.25 mm 0 W/m2
05:50 12.6 °C 12 °C 1013.8 hPa NE 8 km/h 16.1 km/h 96 % 0.25 mm 5 W/m2
05:55 12.6 °C 12 °C 1013.8 hPa NE 8 km/h 16.1 km/h 96 % 0.25 mm 5 W/m2
06:00 12.6 °C 12 °C 1013.8 hPa NE 8 km/h 14.5 km/h 96 % 0.25 mm 5 W/m2
06:05 12.5 °C 11.9 °C 1013.4 hPa ENE 8 km/h 19.3 km/h 96 % 0.25 mm 7 W/m2
06:10 12.4 °C 11.8 °C 1013.4 hPa ENE 9.7 km/h 19.3 km/h 96 % 0.25 mm 7 W/m2
06:15 12.4 °C 11.8 °C 1013.4 hPa ENE 9.7 km/h 22.5 km/h 96 % 0.25 mm 7 W/m2
06:20 12.3 °C 11.7 °C 1013.4 hPa ENE 11.3 km/h 22.5 km/h 96 % 0.25 mm 7 W/m2
06:25 12.3 °C 11.7 °C 1013.4 hPa ENE 9.7 km/h 19.3 km/h 96 % 0.25 mm 7 W/m2
06:30 12.3 °C 11.7 °C 1013.4 hPa ENE 9.7 km/h 17.7 km/h 96 % 0.25 mm 9 W/m2
06:35 12.3 °C 11.7 °C 1013.4 hPa ENE 8 km/h 17.7 km/h 96 % 0.25 mm 9 W/m2
06:40 12.3 °C 11.7 °C 1013.8 hPa ENE 8 km/h 14.5 km/h 96 % 0 mm 11 W/m2
06:45 12.3 °C 11.7 °C 1013.8 hPa ENE 9.7 km/h 19.3 km/h 96 % 0 mm 11 W/m2
06:47 12.3 °C 11.7 °C 1013.8 hPa ENE 8 km/h 19.3 km/h 96 % 0 mm 9 W/m2
06:52 12.3 °C 11.7 °C 1013.8 hPa ENE 8 km/h 19.3 km/h 96 % 0 mm 11 W/m2
06:57 12.2 °C 11.7 °C 1013.8 hPa ENE 6.4 km/h 14.5 km/h 97 % 0 mm 12 W/m2
07:02 12.3 °C 11.8 °C 1013.8 hPa East 6.4 km/h 14.5 km/h 97 % 0 mm 12 W/m2
07:07 12.3 °C 11.8 °C 1014.1 hPa East 6.4 km/h 11.3 km/h 97 % 0 mm 14 W/m2
07:12 12.2 °C 11.7 °C 1013.8 hPa East 6.4 km/h 14.5 km/h 97 % 0 mm 14 W/m2
07:17 12.2 °C 11.7 °C 1013.8 hPa East 6.4 km/h 14.5 km/h 97 % 0 mm 18 W/m2
07:23 12.2 °C 11.7 °C 1013.8 hPa ENE 8 km/h 17.7 km/h 97 % 0 mm 19 W/m2
07:28 12.2 °C 11.7 °C 1013.8 hPa ENE 8 km/h 17.7 km/h 97 % 0 mm 19 W/m2
07:33 12.2 °C 11.7 °C 1014.1 hPa ENE 6.4 km/h 12.9 km/h 97 % 0 mm 18 W/m2
07:38 12.1 °C 11.6 °C 1014.1 hPa NE 8 km/h 17.7 km/h 97 % 0 mm 19 W/m2
07:43 12.1 °C 11.6 °C 1014.1 hPa ENE 8 km/h 17.7 km/h 97 % 0 mm 19 W/m2
07:48 12.1 °C 11.6 °C 1014.1 hPa ENE 6.4 km/h 12.9 km/h 97 % 0 mm 18 W/m2
07:53 12 °C 11.6 °C 1014.1 hPa ENE 6.4 km/h 12.9 km/h 97 % 0 mm 19 W/m2
07:58 12 °C 11.6 °C 1014.1 hPa ENE 6.4 km/h 16.1 km/h 97 % 0 mm 21 W/m2
08:03 11.9 °C 11.4 °C 1014.1 hPa ENE 4.8 km/h 16.1 km/h 97 % 0 mm 23 W/m2
08:08 11.9 °C 11.4 °C 1014.1 hPa ENE 4.8 km/h 12.9 km/h 97 % 0 mm 21 W/m2
08:13 11.9 °C 11.4 °C 1014.1 hPa ENE 4.8 km/h 11.3 km/h 97 % 0 mm 25 W/m2
08:18 12 °C 11.6 °C 1014.4 hPa ENE 4.8 km/h 12.9 km/h 97 % 0 mm 25 W/m2
08:23 11.9 °C 11.4 °C 1014.4 hPa ENE 6.4 km/h 12.9 km/h 97 % 0 mm 21 W/m2
08:28 11.9 °C 11.4 °C 1014.4 hPa ENE 6.4 km/h 14.5 km/h 97 % 0 mm 19 W/m2
08:33 11.9 °C 11.4 °C 1014.4 hPa ENE 6.4 km/h 16.1 km/h 97 % 0 mm 19 W/m2
08:38 11.8 °C 11.3 °C 1014.4 hPa ENE 8 km/h 16.1 km/h 97 % 0 mm 18 W/m2
08:45 11.8 °C 11.3 °C 1014.4 hPa ENE 8 km/h 17.7 km/h 97 % 0 mm 23 W/m2
08:50 11.8 °C 11.3 °C 1014.4 hPa ENE 8 km/h 17.7 km/h 97 % 0 mm 26 W/m2
08:55 11.8 °C 11.3 °C 1014.1 hPa East 6.4 km/h 12.9 km/h 97 % 0 mm 26 W/m2
09:00 11.8 °C 11.3 °C 1014.1 hPa ENE 6.4 km/h 14.5 km/h 97 % 0 mm 35 W/m2
09:05 11.8 °C 11.3 °C 1014.1 hPa ENE 6.4 km/h 14.5 km/h 97 % 0 mm 44 W/m2
09:10 11.8 °C 11.3 °C 1014.1 hPa ENE 8 km/h 16.1 km/h 97 % 0 mm 35 W/m2
09:15 11.8 °C 11.3 °C 1014.1 hPa ENE 8 km/h 16.1 km/h 97 % 0 mm 35 W/m2
09:20 11.8 °C 11.3 °C 1014.1 hPa East 6.4 km/h 14.5 km/h 97 % 0 mm 35 W/m2
09:25 11.8 °C 11.3 °C 1014.1 hPa East 8 km/h 14.5 km/h 97 % 0 mm 40 W/m2
09:30 11.8 °C 11.3 °C 1014.1 hPa East 8 km/h 17.7 km/h 97 % 0 mm 40 W/m2
09:35 11.8 °C 11.3 °C 1014.1 hPa ENE 6.4 km/h 17.7 km/h 97 % 0.25 mm 39 W/m2
09:40 11.8 °C 11.3 °C 1014.4 hPa East 4.8 km/h 11.3 km/h 97 % 0.25 mm 39 W/m2
09:45 11.8 °C 11.3 °C 1014.1 hPa East 6.4 km/h 14.5 km/h 97 % 0.25 mm 51 W/m2
09:50 11.8 °C 11.3 °C 1014.1 hPa East 6.4 km/h 14.5 km/h 97 % 0.25 mm 58 W/m2
09:55 11.8 °C 11.3 °C 1014.1 hPa ENE 8 km/h 16.1 km/h 97 % 0.25 mm 56 W/m2
10:00 11.8 °C 11.3 °C 1014.1 hPa ENE 8 km/h 16.1 km/h 97 % 0.25 mm 54 W/m2
10:05 11.9 °C 11.4 °C 1013.8 hPa East 6.4 km/h 14.5 km/h 97 % 0.51 mm 56 W/m2
10:10 11.9 °C 11.4 °C 1013.8 hPa East 6.4 km/h 12.9 km/h 97 % 0.51 mm 42 W/m2
10:15 11.9 °C 11.4 °C 1013.8 hPa East 4.8 km/h 11.3 km/h 97 % 0.51 mm 40 W/m2
10:20 11.9 °C 11.4 °C 1013.8 hPa East 6.4 km/h 11.3 km/h 97 % 0.51 mm 39 W/m2
10:25 11.9 °C 11.4 °C 1014.1 hPa East 4.8 km/h 9.7 km/h 97 % 0.51 mm 33 W/m2
10:30 11.9 °C 11.4 °C 1013.8 hPa East 3.2 km/h 9.7 km/h 97 % 0.51 mm 35 W/m2
10:35 11.9 °C 11.4 °C 1013.8 hPa ENE 4.8 km/h 12.9 km/h 97 % 0.25 mm 42 W/m2
10:40 11.9 °C 11.4 °C 1013.8 hPa ENE 6.4 km/h 12.9 km/h 97 % 0.25 mm 42 W/m2
10:45 11.9 °C 11.4 °C 1013.8 hPa ENE 4.8 km/h 12.9 km/h 97 % 0.25 mm 37 W/m2
10:50 12 °C 11.6 °C 1013.8 hPa ENE 3.2 km/h 11.3 km/h 97 % 0.25 mm 37 W/m2
10:55 12 °C 11.6 °C 1013.8 hPa ENE 3.2 km/h 11.3 km/h 97 % 0.25 mm 37 W/m2
11:00 12.1 °C 11.6 °C 1013.8 hPa East 4.8 km/h 11.3 km/h 97 % 0.25 mm 32 W/m2
11:06 12.1 °C 11.6 °C 1013.8 hPa ESE 6.4 km/h 11.3 km/h 97 % 0.25 mm 47 W/m2
11:11 12.1 °C 11.6 °C 1013.8 hPa ESE 6.4 km/h 14.5 km/h 97 % 0.25 mm 46 W/m2
11:16 12.1 °C 11.6 °C 1013.8 hPa ESE 8 km/h 14.5 km/h 97 % 0.25 mm 60 W/m2
11:21 12.1 °C 11.6 °C 1013.8 hPa ESE 6.4 km/h 14.5 km/h 97 % 0.25 mm 54 W/m2
11:26 12.1 °C 11.6 °C 1013.8 hPa East 6.4 km/h 11.3 km/h 97 % 0.25 mm 81 W/m2
11:31 12.1 °C 11.6 °C 1013.8 hPa East 6.4 km/h 11.3 km/h 97 % 0.51 mm 77 W/m2
11:36 12.1 °C 11.6 °C 1013.8 hPa East 6.4 km/h 14.5 km/h 97 % 0.51 mm 65 W/m2
11:41 12.2 °C 11.7 °C 1013.8 hPa East 4.8 km/h 14.5 km/h 97 % 0.51 mm 54 W/m2
11:46 12.2 °C 11.7 °C 1013.8 hPa East 3.2 km/h 12.9 km/h 97 % 0.51 mm 91 W/m2
11:51 12.2 °C 11.7 °C 1013.8 hPa East 4.8 km/h 12.9 km/h 97 % 0.51 mm 90 W/m2
11:56 12.2 °C 11.7 °C 1013.4 hPa ENE 3.2 km/h 9.7 km/h 97 % 0.51 mm 98 W/m2
12:01 12.3 °C 11.8 °C 1013.4 hPa East 3.2 km/h 9.7 km/h 97 % 0.51 mm 90 W/m2
12:06 12.3 °C 11.8 °C 1013.4 hPa East 4.8 km/h 12.9 km/h 97 % 0.51 mm 104 W/m2
12:11 12.3 °C 11.8 °C 1013.4 hPa East 6.4 km/h 12.9 km/h 97 % 0.51 mm 134 W/m2
12:16 12.4 °C 11.9 °C 1013.4 hPa East 6.4 km/h 14.5 km/h 97 % 0.51 mm 130 W/m2
12:21 12.4 °C 11.9 °C 1013.4 hPa East 6.4 km/h 14.5 km/h 97 % 0.51 mm 105 W/m2
12:26 12.4 °C 11.9 °C 1013.4 hPa East 4.8 km/h 12.9 km/h 97 % 0.51 mm 102 W/m2
12:31 12.4 °C 11.9 °C 1013.4 hPa East 4.8 km/h 12.9 km/h 97 % 0.25 mm 98 W/m2
12:36 12.5 °C 12.1 °C 1013.1 hPa East 4.8 km/h 12.9 km/h 97 % 0.25 mm 176 W/m2
12:41 12.6 °C 12.1 °C 1013.4 hPa East 4.8 km/h 12.9 km/h 97 % 0.25 mm 153 W/m2
12:46 12.6 °C 12.1 °C 1013.4 hPa East 4.8 km/h 14.5 km/h 97 % 0.25 mm 91 W/m2
12:51 12.6 °C 12.1 °C 1013.1 hPa East 6.4 km/h 14.5 km/h 97 % 0.25 mm 63 W/m2
12:56 12.6 °C 12.1 °C 1013.1 hPa ENE 4.8 km/h 12.9 km/h 97 % 0.25 mm 111 W/m2
13:01 12.7 °C 12.2 °C 1013.1 hPa East 3.2 km/h 9.7 km/h 97 % 0 mm 118 W/m2
13:06 12.7 °C 12.2 °C 1013.1 hPa East 4.8 km/h 11.3 km/h 97 % 0 mm 139 W/m2
13:11 12.7 °C 12.2 °C 1013.1 hPa East 4.8 km/h 11.3 km/h 97 % 0 mm 128 W/m2
13:17 12.9 °C 12.4 °C 1013.1 hPa East 4.8 km/h 12.9 km/h 97 % 0 mm 135 W/m2
13:22 12.9 °C 12.4 °C 1013.1 hPa East 6.4 km/h 12.9 km/h 97 % 0 mm 125 W/m2
13:27 12.9 °C 12.4 °C 1013.1 hPa East 4.8 km/h 12.9 km/h 97 % 0 mm 60 W/m2
13:32 12.8 °C 12.3 °C 1013.1 hPa ENE 3.2 km/h 9.7 km/h 97 % 0 mm 54 W/m2
13:37 12.8 °C 12.3 °C 1013.1 hPa East 3.2 km/h 12.9 km/h 97 % 0 mm 62 W/m2
13:42 12.9 °C 12.4 °C 1013.1 hPa East 4.8 km/h 12.9 km/h 97 % 0 mm 95 W/m2
13:47 12.9 °C 12.4 °C 1013.1 hPa East 3.2 km/h 9.7 km/h 97 % 0 mm 79 W/m2
13:52 13 °C 12.6 °C 1013.1 hPa East 3.2 km/h 9.7 km/h 97 % 0 mm 72 W/m2
13:57 13 °C 12.6 °C 1013.1 hPa East 4.8 km/h 9.7 km/h 97 % 0 mm 42 W/m2
14:02 12.9 °C 12.4 °C 1013.1 hPa East 4.8 km/h 9.7 km/h 97 % 0 mm 56 W/m2
14:07 12.9 °C 12.4 °C 1013.1 hPa ENE 3.2 km/h 9.7 km/h 97 % 0 mm 65 W/m2
14:12 13 °C 12.6 °C 1013.1 hPa ENE 1.6 km/h 8 km/h 97 % 0 mm 54 W/m2
14:17 13 °C 12.6 °C 1013.1 hPa ENE 3.2 km/h 11.3 km/h 97 % 0 mm 47 W/m2
14:22 13 °C 12.6 °C 1013.1 hPa ENE 4.8 km/h 11.3 km/h 97 % 0 mm 40 W/m2
14:27 13.1 °C 12.6 °C 1013.1 hPa ENE 3.2 km/h 11.3 km/h 97 % 0 mm 35 W/m2
14:32 13.1 °C 12.6 °C 1013.1 hPa ENE 3.2 km/h 11.3 km/h 97 % 0 mm 32 W/m2
14:37 13.1 °C 12.6 °C 1012.8 hPa East 3.2 km/h 9.7 km/h 97 % 0 mm 37 W/m2
14:42 13.1 °C 12.6 °C 1012.8 hPa East 4.8 km/h 11.3 km/h 97 % 0 mm 39 W/m2
14:47 13.1 °C 12.5 °C 1012.8 hPa ENE 3.2 km/h 11.3 km/h 96 % 0 mm 44 W/m2
14:52 13.1 °C 12.5 °C 1012.8 hPa ENE 3.2 km/h 11.3 km/h 96 % 0 mm 33 W/m2
14:57 13.1 °C 12.5 °C 1012.8 hPa East 4.8 km/h 11.3 km/h 96 % 0 mm 39 W/m2
15:02 13.1 °C 12.6 °C 1012.8 hPa East 3.2 km/h 9.7 km/h 97 % 0 mm 40 W/m2
15:07 13.2 °C 12.7 °C 1012.8 hPa East 3.2 km/h 8 km/h 97 % 0 mm 37 W/m2
15:12 13.2 °C 12.7 °C 1012.8 hPa East 3.2 km/h 9.7 km/h 97 % 0 mm 44 W/m2
15:17 13.2 °C 12.7 °C 1012.4 hPa East 3.2 km/h 11.3 km/h 97 % 0 mm 62 W/m2
15:22 13.2 °C 12.7 °C 1012.4 hPa East 3.2 km/h 11.3 km/h 97 % 0 mm 47 W/m2
15:27 13.3 °C 12.8 °C 1012.4 hPa East 1.6 km/h 9.7 km/h 97 % 0 mm 58 W/m2
15:32 13.4 °C 12.9 °C 1012.4 hPa ENE 1.6 km/h 9.7 km/h 97 % 0 mm 54 W/m2
15:34 13.4 °C 12.9 °C 1012.4 hPa ENE 3.2 km/h 9.7 km/h 97 % 0 mm 53 W/m2
15:39 13.4 °C 12.8 °C 1012.4 hPa East 4.8 km/h 9.7 km/h 96 % 0 mm 49 W/m2
15:44 13.4 °C 12.8 °C 1012.4 hPa East 3.2 km/h 9.7 km/h 96 % 0 mm 44 W/m2
15:49 13.4 °C 12.8 °C 1012.4 hPa East 4.8 km/h 9.7 km/h 96 % 0 mm 44 W/m2
15:54 13.4 °C 12.8 °C 1012.1 hPa East 4.8 km/h 9.7 km/h 96 % 0 mm 49 W/m2
15:59 13.4 °C 12.8 °C 1012.1 hPa East 3.2 km/h 9.7 km/h 96 % 0 mm 32 W/m2
16:04 13.4 °C 12.8 °C 1012.1 hPa East 3.2 km/h 11.3 km/h 96 % 0 mm 28 W/m2
16:09 13.3 °C 12.7 °C 1012.1 hPa East 4.8 km/h 11.3 km/h 96 % 0 mm 28 W/m2
16:14 13.3 °C 12.7 °C 1012.1 hPa ENE 3.2 km/h 11.3 km/h 96 % 0 mm 28 W/m2
16:19 13.3 °C 12.7 °C 1012.1 hPa ENE 3.2 km/h 11.3 km/h 96 % 0 mm 25 W/m2
16:24 13.4 °C 12.8 °C 1012.1 hPa ENE 3.2 km/h 9.7 km/h 96 % 0 mm 35 W/m2
16:29 13.3 °C 12.7 °C 1012.1 hPa ENE 3.2 km/h 9.7 km/h 96 % 0 mm 33 W/m2
16:34 13.3 °C 12.7 °C 1012.1 hPa ENE 4.8 km/h 9.7 km/h 96 % 0 mm 40 W/m2
16:39 13.3 °C 12.7 °C 1012.1 hPa ENE 4.8 km/h 9.7 km/h 96 % 0 mm 33 W/m2
16:44 13.3 °C 12.7 °C 1012.1 hPa NE 3.2 km/h 9.7 km/h 96 % 0 mm 32 W/m2
16:49 13.4 °C 12.8 °C 1012.1 hPa Calm   8 km/h 96 % 0 mm 26 W/m2
16:54 13.4 °C 12.8 °C 1012.1 hPa NE 1.6 km/h 4.8 km/h 96 % 0 mm 25 W/m2
16:59 13.4 °C 12.8 °C 1012.1 hPa NE 1.6 km/h 4.8 km/h 96 % 0 mm 26 W/m2
17:04 13.4 °C 12.8 °C 1012.1 hPa ENE 1.6 km/h 8 km/h 96 % 0 mm 30 W/m2
17:09 13.4 °C 12.8 °C 1012.1 hPa ENE 1.6 km/h 8 km/h 96 % 0 mm 32 W/m2
17:14 13.3 °C 12.7 °C 1012.1 hPa ENE 1.6 km/h 8 km/h 96 % 0 mm 26 W/m2
17:19 13.3 °C 12.7 °C 1012.1 hPa ENE 1.6 km/h 8 km/h 96 % 0 mm 28 W/m2
17:25 13.3 °C 12.7 °C 1012.1 hPa ENE 1.6 km/h 8 km/h 96 % 0 mm 26 W/m2
17:30 13.3 °C 12.7 °C 1012.1 hPa ENE 1.6 km/h 6.4 km/h 96 % 0 mm 30 W/m2
17:35 13.3 °C 12.7 °C 1012.1 hPa East 1.6 km/h 8 km/h 96 % 0 mm 33 W/m2
17:40 13.3 °C 12.7 °C 1011.7 hPa ENE 1.6 km/h 9.7 km/h 96 % 0 mm 39 W/m2
17:45 13.3 °C 12.7 °C 1011.7 hPa ENE 3.2 km/h 9.7 km/h 96 % 0.25 mm 42 W/m2
17:50 13.3 °C 12.7 °C 1011.7 hPa ENE 3.2 km/h 9.7 km/h 96 % 0.25 mm 35 W/m2
17:55 13.3 °C 12.8 °C 1011.7 hPa ENE 3.2 km/h 9.7 km/h 97 % 0.25 mm 39 W/m2
18:00 13.3 °C 12.8 °C 1011.7 hPa ENE 3.2 km/h 11.3 km/h 97 % 0.25 mm 35 W/m2
18:04 13.3 °C 12.8 °C 1011.7 hPa ENE 4.8 km/h 11.3 km/h 97 % 0.25 mm 33 W/m2
18:09 13.2 °C 12.7 °C 1011.4 hPa ENE 6.4 km/h 12.9 km/h 97 % 0.25 mm 37 W/m2
18:14 13.2 °C 12.7 °C 1011.4 hPa ENE 4.8 km/h 12.9 km/h 97 % 0.25 mm 39 W/m2
18:19 13.2 °C 12.7 °C 1011.4 hPa ENE 4.8 km/h 12.9 km/h 97 % 0.25 mm 49 W/m2
18:24 13.2 °C 12.7 °C 1011.4 hPa ENE 4.8 km/h 12.9 km/h 97 % 0.25 mm 35 W/m2
18:29 13.1 °C 12.6 °C 1011.4 hPa ENE 3.2 km/h 9.7 km/h 97 % 0.25 mm 26 W/m2
18:34 13.1 °C 12.5 °C 1011.4 hPa ENE 4.8 km/h 11.3 km/h 96 % 0.25 mm 40 W/m2
18:39 13 °C 12.4 °C 1011.4 hPa ENE 4.8 km/h 11.3 km/h 96 % 0.25 mm 37 W/m2
18:44 13 °C 12.6 °C 1011.4 hPa ENE 4.8 km/h 12.9 km/h 97 % 0 mm 26 W/m2
18:49 12.9 °C 12.4 °C 1011.4 hPa ENE 4.8 km/h 12.9 km/h 97 % 0 mm 21 W/m2
18:54 12.9 °C 12.4 °C 1011.4 hPa ENE 3.2 km/h 11.3 km/h 97 % 0 mm 25 W/m2
18:59 12.9 °C 12.4 °C 1011.4 hPa ENE 3.2 km/h 11.3 km/h 97 % 0 mm 19 W/m2
19:04 12.9 °C 12.4 °C 1011.4 hPa ENE 3.2 km/h 9.7 km/h 97 % 0 mm 21 W/m2
19:09 12.9 °C 12.4 °C 1011.4 hPa East 3.2 km/h 9.7 km/h 97 % 0 mm 26 W/m2
19:14 12.9 °C 12.4 °C 1011.4 hPa East 3.2 km/h 9.7 km/h 97 % 0 mm 23 W/m2
19:19 12.9 °C 12.4 °C 1011.4 hPa East 3.2 km/h 9.7 km/h 97 % 0 mm 21 W/m2
19:24 12.9 °C 12.4 °C 1011.4 hPa East 3.2 km/h 9.7 km/h 97 % 0 mm 19 W/m2
19:29 12.8 °C 12.3 °C 1011.4 hPa East 3.2 km/h 9.7 km/h 97 % 0 mm 23 W/m2
19:34 12.8 °C 12.3 °C 1011.4 hPa East 3.2 km/h 9.7 km/h 97 % 0.25 mm 18 W/m2
19:39 12.8 °C 12.3 °C 1011.1 hPa ENE 3.2 km/h 9.7 km/h 97 % 0.25 mm 16 W/m2
19:41 12.8 °C 12.3 °C 1011.4 hPa East 3.2 km/h 9.7 km/h 97 % 0.25 mm 14 W/m2
19:46 12.8 °C 12.3 °C 1011.4 hPa East 3.2 km/h 9.7 km/h 97 % 0.25 mm 11 W/m2
19:51 12.8 °C 12.3 °C 1011.4 hPa East 1.6 km/h 6.4 km/h 97 % 0.25 mm 11 W/m2
19:56 12.8 °C 12.3 °C 1011.4 hPa East 1.6 km/h 9.7 km/h 97 % 0.25 mm 12 W/m2
20:02 12.8 °C 12.3 °C 1011.4 hPa ENE 3.2 km/h 9.7 km/h 97 % 0.25 mm 16 W/m2
20:07 12.8 °C 12.3 °C 1011.1 hPa ENE 3.2 km/h 9.7 km/h 97 % 0.25 mm 19 W/m2
20:12 12.8 °C 12.3 °C 1011.1 hPa ENE 3.2 km/h 9.7 km/h 97 % 0.25 mm 19 W/m2
20:17 12.8 °C 12.3 °C 1011.1 hPa ENE 3.2 km/h 9.7 km/h 97 % 0.25 mm 16 W/m2
20:22 12.8 °C 12.3 °C 1011.1 hPa East 1.6 km/h 8 km/h 97 % 0.25 mm 11 W/m2
20:27 12.8 °C 12.3 °C 1011.1 hPa East 3.2 km/h 9.7 km/h 97 % 0.25 mm 9 W/m2
20:32 12.8 °C 12.3 °C 1011.1 hPa East 3.2 km/h 9.7 km/h 97 % 0 mm 9 W/m2
20:37 12.8 °C 12.3 °C 1011.1 hPa East 1.6 km/h 8 km/h 97 % 0 mm 5 W/m2
20:42 12.8 °C 12.3 °C 1011.1 hPa ESE 1.6 km/h 8 km/h 97 % 0 mm 5 W/m2
20:47 12.8 °C 12.3 °C 1011.1 hPa East 1.6 km/h 8 km/h 97 % 0 mm 0 W/m2
20:52 12.8 °C 12.3 °C 1011.1 hPa East 1.6 km/h 8 km/h 97 % 0 mm 0 W/m2
20:57 12.8 °C 12.3 °C 1011.1 hPa East 1.6 km/h 8 km/h 97 % 0 mm 5 W/m2
21:02 12.8 °C 12.3 °C 1011.1 hPa East 1.6 km/h 6.4 km/h 97 % 0 mm 5 W/m2
21:04 12.8 °C 12.3 °C 1011.1 hPa Calm   6.4 km/h 97 % 0 mm 7 W/m2
21:09 12.8 °C 12.3 °C 1011.4 hPa East 1.6 km/h 8 km/h 97 % 0 mm 7 W/m2
21:10 12.8 °C 12.3 °C 1011.1 hPa East 1.6 km/h 8 km/h 97 % 0 mm 7 W/m2
21:15 12.8 °C 12.3 °C 1011.4 hPa East 1.6 km/h 8 km/h 97 % 0 mm 5 W/m2
21:20 12.8 °C 12.3 °C 1011.1 hPa Calm   3.2 km/h 97 % 0 mm 0 W/m2
21:25 12.8 °C 12.3 °C 1011.1 hPa Calm   3.2 km/h 97 % 0 mm 0 W/m2
21:30 12.8 °C 12.3 °C 1011.4 hPa Calm   3.2 km/h 97 % 0 mm 0 W/m2
21:35 12.8 °C 12.3 °C 1011.4 hPa Calm   4.8 km/h 97 % 0 mm 0 W/m2
21:36 12.8 °C 12.3 °C 1011.4 hPa Calm   4.8 km/h 97 % 0 mm 0 W/m2
21:41 12.8 °C 12.3 °C 1011.4 hPa Calm   3.2 km/h 97 % 0 mm 0 W/m2
21:46 12.8 °C 12.3 °C 1011.4 hPa Calm     97 % 0 mm 0 W/m2
21:51 12.8 °C 12.3 °C 1011.4 hPa Calm   1.6 km/h 97 % 0 mm 0 W/m2
21:56 12.8 °C 12.3 °C 1011.4 hPa Calm   4.8 km/h 97 % 0 mm 0 W/m2
22:01 12.8 °C 12.3 °C 1011.4 hPa Calm   4.8 km/h 97 % 0 mm 0 W/m2
22:06 12.8 °C 12.3 °C 1011.4 hPa Calm   1.6 km/h 97 % 0 mm 0 W/m2
22:11 12.8 °C 12.3 °C 1011.4 hPa Calm   3.2 km/h 97 % 0 mm 0 W/m2
22:16 12.8 °C 12.3 °C 1011.4 hPa Calm   3.2 km/h 97 % 0 mm 0 W/m2
22:21 12.8 °C 12.3 °C 1011.4 hPa Calm   1.6 km/h 97 % 0 mm 0 W/m2
22:26 12.8 °C 12.3 °C 1011.4 hPa Calm     97 % 0 mm 0 W/m2
22:31 12.8 °C 12.3 °C 1011.4 hPa Calm   1.6 km/h 97 % 0 mm 0 W/m2
22:36 12.8 °C 12.3 °C 1011.1 hPa Calm   1.6 km/h 97 % 0 mm 0 W/m2
22:41 12.8 °C 12.3 °C 1011.1 hPa East 1.6 km/h 6.4 km/h 97 % 0 mm 0 W/m2
22:46 12.8 °C 12.3 °C 1011.1 hPa East 1.6 km/h 6.4 km/h 97 % 0 mm 0 W/m2
22:51 12.8 °C 12.3 °C 1011.1 hPa Calm   4.8 km/h 97 % 0 mm 0 W/m2
22:56 12.8 °C 12.3 °C 1011.1 hPa East 1.6 km/h 8 km/h 97 % 0 mm 0 W/m2
23:01 12.8 °C 12.3 °C 1011.1 hPa East 1.6 km/h 8 km/h 97 % 0 mm 0 W/m2
23:06 12.8 °C 12.3 °C 1011.1 hPa Calm   6.4 km/h 97 % 0 mm 0 W/m2
23:11 12.8 °C 12.3 °C 1011.1 hPa Calm   6.4 km/h 97 % 0 mm 0 W/m2
23:16 12.8 °C 12.3 °C 1011.1 hPa Calm   6.4 km/h 97 % 0 mm 0 W/m2
23:21 12.8 °C 12.3 °C 1011.1 hPa Calm   6.4 km/h 97 % 0 mm 0 W/m2
23:26 12.8 °C 12.3 °C 1011.1 hPa Calm   6.4 km/h 97 % 0 mm 0 W/m2
23:31 12.8 °C 12.3 °C 1011.1 hPa East 1.6 km/h 6.4 km/h 97 % 0 mm 0 W/m2
23:37 12.8 °C 12.3 °C 1011.1 hPa East 1.6 km/h 6.4 km/h 97 % 0 mm 0 W/m2
23:42 12.8 °C 12.3 °C 1011.1 hPa East 1.6 km/h 8 km/h 97 % 0 mm 0 W/m2
23:47 12.8 °C 12.3 °C 1011.1 hPa East 1.6 km/h 8 km/h 97 % 0 mm 0 W/m2
23:52 12.8 °C 12.3 °C 1011.1 hPa Calm   4.8 km/h 97 % 0 mm 0 W/m2
23:57 12.8 °C 12.3 °C 1011.1 hPa East 1.6 km/h 4.8 km/h 97 % 0 mm 0 W/m2
23:59 12.8 °C 12.3 °C 1011.1 hPa East 1.6 km/h 4.8 km/h 97 % 0 mm 0 W/m2
Delerius-Weather
Compliments of Weather Underground - 2.25 mb

Data updates at regular intervals.